sensor_id;sensor_type;location;lat;lon;timestamp;noise_LAeq;noise_LA_min;noise_LA_max;noise_LA01;noise_LA95
75037;Laerm;64247;51.540;5.854;2023-04-03T00:01:38;47.35;45.44;49.05;;
75037;Laerm;64247;51.540;5.854;2023-04-03T00:03:39;47.39;45.76;48.88;;
75037;Laerm;64247;51.540;5.854;2023-04-03T00:05:41;47.49;45.67;50.48;;
75037;Laerm;64247;51.540;5.854;2023-04-03T00:07:42;47.42;45.83;49.11;;
75037;Laerm;64247;51.540;5.854;2023-04-03T00:09:43;49.02;45.68;56.01;;
75037;Laerm;64247;51.540;5.854;2023-04-03T00:11:45;48.38;46.53;50.05;;
75037;Laerm;64247;51.540;5.854;2023-04-03T00:13:46;48.29;46.53;49.94;;
75037;Laerm;64247;51.540;5.854;2023-04-03T00:15:47;48.20;46.37;49.86;;
75037;Laerm;64247;51.540;5.854;2023-04-03T00:17:48;48.18;46.34;49.95;;
75037;Laerm;64247;51.540;5.854;2023-04-03T00:19:49;48.38;46.58;51.14;;
75037;Laerm;64247;51.540;5.854;2023-04-03T00:21:49;50.07;46.48;60.00;;
75037;Laerm;64247;51.540;5.854;2023-04-03T00:23:51;48.57;46.61;50.32;;
75037;Laerm;64247;51.540;5.854;2023-04-03T00:25:52;48.55;46.65;50.62;;
75037;Laerm;64247;51.540;5.854;2023-04-03T00:27:54;48.11;46.59;49.90;;
75037;Laerm;64247;51.540;5.854;2023-04-03T00:29:55;48.44;46.23;50.57;;
75037;Laerm;64247;51.540;5.854;2023-04-03T00:31:56;48.15;46.20;49.89;;
75037;Laerm;64247;51.540;5.854;2023-04-03T00:33:58;48.24;46.54;50.55;;
75037;Laerm;64247;51.540;5.854;2023-04-03T00:35:59;48.49;46.38;50.07;;
75037;Laerm;64247;51.540;5.854;2023-04-03T00:38:00;48.32;46.47;50.13;;
75037;Laerm;64247;51.540;5.854;2023-04-03T00:40:02;48.26;46.60;51.06;;
75037;Laerm;64247;51.540;5.854;2023-04-03T00:42:03;48.37;46.47;50.71;;
75037;Laerm;64247;51.540;5.854;2023-04-03T00:47:09;48.06;46.12;50.02;;
75037;Laerm;64247;51.540;5.854;2023-04-03T00:49:11;47.81;46.22;49.55;;
75037;Laerm;64247;51.540;5.854;2023-04-03T00:51:22;47.92;45.81;51.92;;
75037;Laerm;64247;51.540;5.854;2023-04-03T00:53:40;47.54;45.83;51.50;;
75037;Laerm;64247;51.540;5.854;2023-04-03T00:55:43;49.76;45.97;55.57;;
75037;Laerm;64247;51.540;5.854;2023-04-03T00:57:45;48.96;46.01;54.97;;
75037;Laerm;64247;51.540;5.854;2023-04-03T00:59:55;47.64;45.31;50.58;;
75037;Laerm;64247;51.540;5.854;2023-04-03T01:01:59;47.67;45.68;59.78;;
75037;Laerm;64247;51.540;5.854;2023-04-03T01:04:04;48.03;46.02;54.45;;
75037;Laerm;64247;51.540;5.854;2023-04-03T01:06:07;48.17;45.93;52.51;;
75037;Laerm;64247;51.540;5.854;2023-04-03T01:08:08;47.62;45.74;49.84;;
75037;Laerm;64247;51.540;5.854;2023-04-03T01:10:11;48.21;45.99;51.09;;
75037;Laerm;64247;51.540;5.854;2023-04-03T01:12:38;48.54;46.67;50.24;;
75037;Laerm;64247;51.540;5.854;2023-04-03T01:14:40;48.55;46.62;50.14;;
75037;Laerm;64247;51.540;5.854;2023-04-03T01:16:41;48.50;46.79;51.28;;
75037;Laerm;64247;51.540;5.854;2023-04-03T01:18:43;49.19;46.66;53.25;;
75037;Laerm;64247;51.540;5.854;2023-04-03T01:24:22;48.62;46.61;50.64;;
75037;Laerm;64247;51.540;5.854;2023-04-03T01:26:28;48.97;46.58;53.42;;
75037;Laerm;64247;51.540;5.854;2023-04-03T01:28:33;48.77;46.59;55.54;;
75037;Laerm;64247;51.540;5.854;2023-04-03T01:33:18;49.67;46.91;54.89;;
75037;Laerm;64247;51.540;5.854;2023-04-03T01:35:22;49.74;46.59;57.27;;
75037;Laerm;64247;51.540;5.854;2023-04-03T01:37:23;48.49;46.60;50.28;;
75037;Laerm;64247;51.540;5.854;2023-04-03T01:39:24;48.50;46.40;55.40;;
75037;Laerm;64247;51.540;5.854;2023-04-03T01:41:27;49.30;46.87;53.14;;
75037;Laerm;64247;51.540;5.854;2023-04-03T01:43:34;48.86;46.72;51.58;;
75037;Laerm;64247;51.540;5.854;2023-04-03T01:45:35;48.45;46.60;50.17;;
75037;Laerm;64247;51.540;5.854;2023-04-03T01:47:36;48.47;46.96;52.87;;
75037;Laerm;64247;51.540;5.854;2023-04-03T01:49:36;48.45;46.74;49.96;;
75037;Laerm;64247;51.540;5.854;2023-04-03T01:51:37;48.29;46.12;55.41;;
75037;Laerm;64247;51.540;5.854;2023-04-03T01:53:38;47.86;45.82;49.48;;
75037;Laerm;64247;51.540;5.854;2023-04-03T01:55:39;47.97;46.02;49.49;;
75037;Laerm;64247;51.540;5.854;2023-04-03T01:57:40;48.24;46.29;52.44;;
75037;Laerm;64247;51.540;5.854;2023-04-03T01:59:42;48.66;46.47;53.28;;
75037;Laerm;64247;51.540;5.854;2023-04-03T02:01:43;47.88;45.99;49.80;;
75037;Laerm;64247;51.540;5.854;2023-04-03T02:03:45;49.58;45.98;59.99;;
75037;Laerm;64247;51.540;5.854;2023-04-03T02:05:47;48.98;45.89;55.27;;
75037;Laerm;64247;51.540;5.854;2023-04-03T02:07:48;50.34;47.05;55.01;;
75037;Laerm;64247;51.540;5.854;2023-04-03T02:09:49;48.80;46.62;52.19;;
75037;Laerm;64247;51.540;5.854;2023-04-03T02:11:51;49.39;47.04;54.42;;
75037;Laerm;64247;51.540;5.854;2023-04-03T02:13:52;48.90;46.72;51.39;;
75037;Laerm;64247;51.540;5.854;2023-04-03T02:15:52;48.54;46.77;50.01;;
75037;Laerm;64247;51.540;5.854;2023-04-03T02:17:53;49.28;46.62;58.07;;
75037;Laerm;64247;51.540;5.854;2023-04-03T02:19:55;49.56;46.74;57.69;;
75037;Laerm;64247;51.540;5.854;2023-04-03T02:21:57;48.98;46.34;55.82;;
75037;Laerm;64247;51.540;5.854;2023-04-03T02:23:58;48.57;46.94;50.24;;
75037;Laerm;64247;51.540;5.854;2023-04-03T02:26:17;48.50;46.36;50.21;;
75037;Laerm;64247;51.540;5.854;2023-04-03T02:28:19;48.37;46.56;49.91;;
75037;Laerm;64247;51.540;5.854;2023-04-03T02:30:20;50.72;46.76;59.30;;
75037;Laerm;64247;51.540;5.854;2023-04-03T02:32:21;49.18;46.60;54.46;;
75037;Laerm;64247;51.540;5.854;2023-04-03T02:34:22;49.81;46.92;57.00;;
75037;Laerm;64247;51.540;5.854;2023-04-03T02:36:24;48.81;46.56;54.75;;
75037;Laerm;64247;51.540;5.854;2023-04-03T02:38:29;49.10;46.40;53.68;;
75037;Laerm;64247;51.540;5.854;2023-04-03T02:40:30;50.07;46.66;57.10;;
75037;Laerm;64247;51.540;5.854;2023-04-03T02:42:31;50.45;46.69;59.90;;
75037;Laerm;64247;51.540;5.854;2023-04-03T02:44:32;49.20;46.64;56.50;;
75037;Laerm;64247;51.540;5.854;2023-04-03T02:46:33;50.05;47.32;55.93;;
75037;Laerm;64247;51.540;5.854;2023-04-03T02:48:34;49.35;46.96;55.02;;
75037;Laerm;64247;51.540;5.854;2023-04-03T02:50:36;50.46;46.84;60.65;;
75037;Laerm;64247;51.540;5.854;2023-04-03T02:52:37;49.02;45.68;56.15;;
75037;Laerm;64247;51.540;5.854;2023-04-03T02:54:38;48.28;45.99;53.65;;
75037;Laerm;64247;51.540;5.854;2023-04-03T02:56:42;47.61;45.54;52.07;;
75037;Laerm;64247;51.540;5.854;2023-04-03T02:58:43;48.65;45.97;55.19;;
75037;Laerm;64247;51.540;5.854;2023-04-03T03:00:45;49.39;46.28;58.90;;
75037;Laerm;64247;51.540;5.854;2023-04-03T03:02:45;49.29;45.92;53.94;;
75037;Laerm;64247;51.540;5.854;2023-04-03T03:04:46;48.24;45.81;53.92;;
75037;Laerm;64247;51.540;5.854;2023-04-03T03:06:48;47.81;45.97;54.69;;
75037;Laerm;64247;51.540;5.854;2023-04-03T03:08:48;50.56;46.81;57.41;;
75037;Laerm;64247;51.540;5.854;2023-04-03T03:10:49;51.64;47.17;62.40;;
75037;Laerm;64247;51.540;5.854;2023-04-03T03:12:51;49.41;46.77;53.54;;
75037;Laerm;64247;51.540;5.854;2023-04-03T03:14:52;50.18;47.42;55.00;;
75037;Laerm;64247;51.540;5.854;2023-04-03T03:16:53;49.61;46.78;55.67;;
75037;Laerm;64247;51.540;5.854;2023-04-03T03:18:54;49.10;46.76;54.10;;
75037;Laerm;64247;51.540;5.854;2023-04-03T03:20:59;49.67;47.03;56.81;;
75037;Laerm;64247;51.540;5.854;2023-04-03T03:23:00;50.40;47.50;59.64;;
75037;Laerm;64247;51.540;5.854;2023-04-03T03:25:02;50.37;47.51;57.32;;
75037;Laerm;64247;51.540;5.854;2023-04-03T03:27:04;51.75;47.53;59.01;;
75037;Laerm;64247;51.540;5.854;2023-04-03T03:29:05;50.96;47.37;59.13;;
75037;Laerm;64247;51.540;5.854;2023-04-03T03:31:08;51.67;48.65;58.15;;
75037;Laerm;64247;51.540;5.854;2023-04-03T03:33:11;51.77;48.93;64.33;;
75037;Laerm;64247;51.540;5.854;2023-04-03T03:35:12;51.20;47.41;59.83;;
75037;Laerm;64247;51.540;5.854;2023-04-03T03:37:13;51.02;46.94;56.00;;
75037;Laerm;64247;51.540;5.854;2023-04-03T03:39:14;52.21;48.61;59.01;;
75037;Laerm;64247;51.540;5.854;2023-04-03T03:41:15;51.31;47.99;56.14;;
75037;Laerm;64247;51.540;5.854;2023-04-03T03:43:18;51.04;47.65;56.80;;
75037;Laerm;64247;51.540;5.854;2023-04-03T03:45:21;52.42;48.34;58.51;;
75037;Laerm;64247;51.540;5.854;2023-04-03T03:47:22;50.20;46.99;56.52;;
75037;Laerm;64247;51.540;5.854;2023-04-03T03:49:23;49.68;47.07;58.16;;
75037;Laerm;64247;51.540;5.854;2023-04-03T03:51:24;50.45;46.86;56.37;;
75037;Laerm;64247;51.540;5.854;2023-04-03T03:53:25;50.91;47.77;57.91;;
75037;Laerm;64247;51.540;5.854;2023-04-03T03:55:30;51.98;47.57;60.91;;
75037;Laerm;64247;51.540;5.854;2023-04-03T03:57:32;51.56;47.75;59.63;;
75037;Laerm;64247;51.540;5.854;2023-04-03T03:59:33;53.38;47.29;60.64;;
75037;Laerm;64247;51.540;5.854;2023-04-03T04:01:34;50.50;46.91;59.73;;
75037;Laerm;64247;51.540;5.854;2023-04-03T04:03:36;52.18;47.72;59.49;;
75037;Laerm;64247;51.540;5.854;2023-04-03T04:05:37;53.74;48.27;62.81;;
75037;Laerm;64247;51.540;5.854;2023-04-03T04:07:38;53.86;47.87;67.70;;
75037;Laerm;64247;51.540;5.854;2023-04-03T04:09:40;53.44;47.84;68.09;;
75037;Laerm;64247;51.540;5.854;2023-04-03T04:11:42;51.49;47.16;60.84;;
75037;Laerm;64247;51.540;5.854;2023-04-03T04:13:46;51.82;48.11;57.72;;
75037;Laerm;64247;51.540;5.854;2023-04-03T04:15:48;52.80;49.27;61.36;;
75037;Laerm;64247;51.540;5.854;2023-04-03T04:17:51;54.01;48.51;65.02;;
75037;Laerm;64247;51.540;5.854;2023-04-03T04:19:52;55.52;49.22;69.72;;
75037;Laerm;64247;51.540;5.854;2023-04-03T04:21:53;56.92;50.52;70.17;;
75037;Laerm;64247;51.540;5.854;2023-04-03T04:23:54;56.15;49.17;68.99;;
75037;Laerm;64247;51.540;5.854;2023-04-03T04:25:56;56.17;48.77;68.60;;
75037;Laerm;64247;51.540;5.854;2023-04-03T04:27:57;55.87;49.46;66.34;;
75037;Laerm;64247;51.540;5.854;2023-04-03T04:29:59;55.20;49.52;65.12;;
75037;Laerm;64247;51.540;5.854;2023-04-03T04:32:05;55.38;49.31;70.98;;
75037;Laerm;64247;51.540;5.854;2023-04-03T04:34:06;54.34;48.61;65.24;;
75037;Laerm;64247;51.540;5.854;2023-04-03T04:36:07;55.61;50.18;66.67;;
75037;Laerm;64247;51.540;5.854;2023-04-03T04:38:09;56.61;50.84;67.43;;
75037;Laerm;64247;51.540;5.854;2023-04-03T04:40:12;55.03;50.79;64.09;;
75037;Laerm;64247;51.540;5.854;2023-04-03T04:42:13;52.47;48.92;57.20;;
75037;Laerm;64247;51.540;5.854;2023-04-03T04:44:15;55.65;51.05;64.92;;
75037;Laerm;64247;51.540;5.854;2023-04-03T04:46:18;53.41;50.16;57.85;;
75037;Laerm;64247;51.540;5.854;2023-04-03T04:48:24;52.98;49.94;61.11;;
75037;Laerm;64247;51.540;5.854;2023-04-03T04:50:25;53.39;49.83;64.64;;
75037;Laerm;64247;51.540;5.854;2023-04-03T04:52:26;52.79;48.29;60.55;;
75037;Laerm;64247;51.540;5.854;2023-04-03T04:54:26;54.05;48.55;63.19;;
75037;Laerm;64247;51.540;5.854;2023-04-03T04:56:27;54.25;50.18;63.42;;
75037;Laerm;64247;51.540;5.854;2023-04-03T04:58:30;53.90;49.49;65.24;;
75037;Laerm;64247;51.540;5.854;2023-04-03T05:00:32;53.58;49.28;63.27;;
75037;Laerm;64247;51.540;5.854;2023-04-03T05:02:33;55.42;50.71;67.36;;
75037;Laerm;64247;51.540;5.854;2023-04-03T05:04:34;55.42;50.42;63.35;;
75037;Laerm;64247;51.540;5.854;2023-04-03T05:06:41;55.97;50.93;64.42;;
75037;Laerm;64247;51.540;5.854;2023-04-03T05:08:47;54.19;49.16;61.45;;
75037;Laerm;64247;51.540;5.854;2023-04-03T05:10:48;54.81;50.01;63.68;;
75037;Laerm;64247;51.540;5.854;2023-04-03T05:12:50;55.81;49.97;65.40;;
75037;Laerm;64247;51.540;5.854;2023-04-03T05:14:51;54.62;49.86;63.25;;
75037;Laerm;64247;51.540;5.854;2023-04-03T05:16:53;54.66;51.04;67.03;;
75037;Laerm;64247;51.540;5.854;2023-04-03T05:18:56;57.22;51.06;69.50;;
75037;Laerm;64247;51.540;5.854;2023-04-03T05:20:57;57.20;51.07;67.68;;
75037;Laerm;64247;51.540;5.854;2023-04-03T05:23:00;56.87;50.60;67.42;;
75037;Laerm;64247;51.540;5.854;2023-04-03T05:25:01;58.11;50.19;70.99;;
75037;Laerm;64247;51.540;5.854;2023-04-03T05:27:02;56.77;50.27;71.52;;
75037;Laerm;64247;51.540;5.854;2023-04-03T05:29:04;57.84;50.42;70.39;;
75037;Laerm;64247;51.540;5.854;2023-04-03T05:31:06;57.72;50.15;69.83;;
75037;Laerm;64247;51.540;5.854;2023-04-03T05:33:10;58.28;50.01;70.45;;
75037;Laerm;64247;51.540;5.854;2023-04-03T05:35:18;56.34;50.59;69.47;;
75037;Laerm;64247;51.540;5.854;2023-04-03T05:37:21;54.55;50.67;66.07;;
75037;Laerm;64247;51.540;5.854;2023-04-03T05:39:24;55.51;49.99;67.75;;
75037;Laerm;64247;51.540;5.854;2023-04-03T05:41:26;55.39;51.41;65.93;;
75037;Laerm;64247;51.540;5.854;2023-04-03T05:43:27;54.74;51.66;67.28;;
75037;Laerm;64247;51.540;5.854;2023-04-03T05:45:29;55.55;50.40;68.56;;
75037;Laerm;64247;51.540;5.854;2023-04-03T05:47:31;55.05;51.03;63.88;;
75037;Laerm;64247;51.540;5.854;2023-04-03T05:49:33;54.90;50.50;59.95;;
75037;Laerm;64247;51.540;5.854;2023-04-03T05:51:36;53.62;50.08;58.85;;
75037;Laerm;64247;51.540;5.854;2023-04-03T05:53:47;54.99;50.41;62.32;;
75037;Laerm;64247;51.540;5.854;2023-04-03T05:55:48;55.77;50.80;63.99;;
75037;Laerm;64247;51.540;5.854;2023-04-03T05:57:49;54.95;50.39;65.81;;
75037;Laerm;64247;51.540;5.854;2023-04-03T05:59:51;55.84;50.60;66.59;;
75037;Laerm;64247;51.540;5.854;2023-04-03T06:01:53;55.69;49.16;68.39;;
75037;Laerm;64247;51.540;5.854;2023-04-03T06:03:53;57.62;49.82;72.79;;
75037;Laerm;64247;51.540;5.854;2023-04-03T06:05:55;55.41;48.80;70.48;;
75037;Laerm;64247;51.540;5.854;2023-04-03T06:07:56;56.06;49.22;70.41;;
75037;Laerm;64247;51.540;5.854;2023-04-03T06:09:57;54.79;49.28;67.93;;
75037;Laerm;64247;51.540;5.854;2023-04-03T06:11:59;54.90;50.08;65.12;;
75037;Laerm;64247;51.540;5.854;2023-04-03T06:14:01;56.29;50.65;70.50;;
75037;Laerm;64247;51.540;5.854;2023-04-03T06:16:05;55.51;49.42;66.45;;
75037;Laerm;64247;51.540;5.854;2023-04-03T06:18:06;56.19;49.48;69.54;;
75037;Laerm;64247;51.540;5.854;2023-04-03T06:20:09;55.30;49.01;70.81;;
75037;Laerm;64247;51.540;5.854;2023-04-03T06:22:10;54.07;48.88;65.25;;
75037;Laerm;64247;51.540;5.854;2023-04-03T06:24:15;53.76;48.63;61.40;;
75037;Laerm;64247;51.540;5.854;2023-04-03T06:26:17;51.37;47.77;62.05;;
75037;Laerm;64247;51.540;5.854;2023-04-03T06:28:18;52.68;49.08;63.56;;
75037;Laerm;64247;51.540;5.854;2023-04-03T06:30:19;56.43;49.26;66.88;;
75037;Laerm;64247;51.540;5.854;2023-04-03T06:32:20;56.43;50.28;68.59;;
75037;Laerm;64247;51.540;5.854;2023-04-03T06:34:21;56.41;50.34;68.41;;
75037;Laerm;64247;51.540;5.854;2023-04-03T06:36:22;56.65;49.62;72.06;;
75037;Laerm;64247;51.540;5.854;2023-04-03T06:38:23;59.48;50.17;70.66;;
75037;Laerm;64247;51.540;5.854;2023-04-03T06:40:25;58.38;47.83;69.13;;
75037;Laerm;64247;51.540;5.854;2023-04-03T06:42:27;64.50;49.74;75.23;;
75037;Laerm;64247;51.540;5.854;2023-04-03T06:44:41;55.93;47.31;68.23;;
75037;Laerm;64247;51.540;5.854;2023-04-03T06:46:43;64.64;49.00;76.18;;
75037;Laerm;64247;51.540;5.854;2023-04-03T06:48:45;55.40;47.81;67.92;;
75037;Laerm;64247;51.540;5.854;2023-04-03T06:50:46;56.12;48.30;69.09;;
75037;Laerm;64247;51.540;5.854;2023-04-03T06:52:46;57.65;46.83;71.33;;
75037;Laerm;64247;51.540;5.854;2023-04-03T06:54:47;52.94;46.91;68.22;;
75037;Laerm;64247;51.540;5.854;2023-04-03T06:56:48;51.14;47.00;67.23;;
75037;Laerm;64247;51.540;5.854;2023-04-03T06:58:49;55.10;47.05;66.86;;
75037;Laerm;64247;51.540;5.854;2023-04-03T07:00:52;55.25;46.72;69.11;;
75037;Laerm;64247;51.540;5.854;2023-04-03T07:02:53;53.88;47.23;66.41;;
75037;Laerm;64247;51.540;5.854;2023-04-03T07:04:54;53.57;47.05;65.65;;
75037;Laerm;64247;51.540;5.854;2023-04-03T07:06:55;62.43;47.50;74.89;;
75037;Laerm;64247;51.540;5.854;2023-04-03T07:08:56;55.17;46.87;69.51;;
75037;Laerm;64247;51.540;5.854;2023-04-03T07:10:57;54.94;47.63;69.19;;
75037;Laerm;64247;51.540;5.854;2023-04-03T07:12:58;64.51;49.38;77.15;;
75037;Laerm;64247;51.540;5.854;2023-04-03T07:14:59;57.85;49.65;71.56;;
75037;Laerm;64247;51.540;5.854;2023-04-03T07:17:00;56.58;49.24;70.90;;
75037;Laerm;64247;51.540;5.854;2023-04-03T07:19:02;54.11;49.22;63.07;;
75037;Laerm;64247;51.540;5.854;2023-04-03T07:21:04;54.98;49.14;64.39;;
75037;Laerm;64247;51.540;5.854;2023-04-03T07:23:05;54.25;48.93;72.91;;
75037;Laerm;64247;51.540;5.854;2023-04-03T07:25:06;53.32;47.62;73.60;;
75037;Laerm;64247;51.540;5.854;2023-04-03T07:27:08;52.21;46.01;63.42;;
75037;Laerm;64247;51.540;5.854;2023-04-03T07:29:09;52.63;46.93;63.04;;
75037;Laerm;64247;51.540;5.854;2023-04-03T07:31:12;51.33;46.09;62.53;;
75037;Laerm;64247;51.540;5.854;2023-04-03T07:33:19;49.50;45.98;58.93;;
75037;Laerm;64247;51.540;5.854;2023-04-03T07:35:21;50.39;46.40;60.88;;
75037;Laerm;64247;51.540;5.854;2023-04-03T07:37:22;51.48;46.47;66.26;;
75037;Laerm;64247;51.540;5.854;2023-04-03T07:39:23;51.21;45.87;63.91;;
75037;Laerm;64247;51.540;5.854;2023-04-03T07:41:24;53.55;46.48;69.57;;
75037;Laerm;64247;51.540;5.854;2023-04-03T07:43:25;54.18;46.29;70.81;;
75037;Laerm;64247;51.540;5.854;2023-04-03T07:45:26;54.63;45.81;72.00;;
75037;Laerm;64247;51.540;5.854;2023-04-03T07:47:28;55.45;46.43;67.76;;
75037;Laerm;64247;51.540;5.854;2023-04-03T07:49:28;54.19;46.33;71.77;;
75037;Laerm;64247;51.540;5.854;2023-04-03T07:51:29;53.25;46.19;70.90;;
75037;Laerm;64247;51.540;5.854;2023-04-03T07:53:32;53.48;46.51;69.78;;
75037;Laerm;64247;51.540;5.854;2023-04-03T07:55:34;52.33;45.10;65.27;;
75037;Laerm;64247;51.540;5.854;2023-04-03T07:57:37;50.41;45.93;63.04;;
75037;Laerm;64247;51.540;5.854;2023-04-03T07:59:38;54.00;46.69;67.11;;
75037;Laerm;64247;51.540;5.854;2023-04-03T08:01:40;57.06;47.13;74.44;;
75037;Laerm;64247;51.540;5.854;2023-04-03T08:03:41;50.77;45.78;63.40;;
75037;Laerm;64247;51.540;5.854;2023-04-03T08:05:45;52.72;46.83;64.99;;
75037;Laerm;64247;51.540;5.854;2023-04-03T08:07:47;53.36;46.37;67.32;;
75037;Laerm;64247;51.540;5.854;2023-04-03T08:09:48;53.46;46.55;66.33;;
75037;Laerm;64247;51.540;5.854;2023-04-03T08:11:49;54.58;46.69;67.25;;
75037;Laerm;64247;51.540;5.854;2023-04-03T08:13:53;53.81;46.51;67.43;;
75037;Laerm;64247;51.540;5.854;2023-04-03T08:15:54;51.80;46.88;62.32;;
75037;Laerm;64247;51.540;5.854;2023-04-03T08:17:59;54.90;46.75;67.91;;
75037;Laerm;64247;51.540;5.854;2023-04-03T08:20:03;55.70;46.74;70.24;;
75037;Laerm;64247;51.540;5.854;2023-04-03T08:22:05;55.17;46.80;68.56;;
75037;Laerm;64247;51.540;5.854;2023-04-03T08:24:07;53.39;47.30;72.71;;
75037;Laerm;64247;51.540;5.854;2023-04-03T08:26:15;54.86;46.28;72.17;;
75037;Laerm;64247;51.540;5.854;2023-04-03T08:28:17;54.38;47.00;66.33;;
75037;Laerm;64247;51.540;5.854;2023-04-03T08:30:18;51.49;47.24;64.68;;
75037;Laerm;64247;51.540;5.854;2023-04-03T08:32:19;52.75;46.80;67.12;;
75037;Laerm;64247;51.540;5.854;2023-04-03T08:34:20;55.04;47.03;71.08;;
75037;Laerm;64247;51.540;5.854;2023-04-03T08:36:25;53.66;46.75;68.81;;
75037;Laerm;64247;51.540;5.854;2023-04-03T08:38:26;57.01;47.21;71.17;;
75037;Laerm;64247;51.540;5.854;2023-04-03T08:40:27;54.91;47.36;66.23;;
75037;Laerm;64247;51.540;5.854;2023-04-03T08:45:59;57.00;46.88;71.37;;
75037;Laerm;64247;51.540;5.854;2023-04-03T08:48:35;53.28;46.29;69.71;;
75037;Laerm;64247;51.540;5.854;2023-04-03T08:50:44;53.04;45.82;68.92;;
75037;Laerm;64247;51.540;5.854;2023-04-03T08:52:57;53.99;46.60;68.25;;
75037;Laerm;64247;51.540;5.854;2023-04-03T08:55:03;55.41;46.34;69.58;;
75037;Laerm;64247;51.540;5.854;2023-04-03T08:57:05;53.51;45.89;66.33;;
75037;Laerm;64247;51.540;5.854;2023-04-03T08:59:18;50.34;46.59;64.27;;
75037;Laerm;64247;51.540;5.854;2023-04-03T09:01:35;51.53;46.92;64.05;;
75037;Laerm;64247;51.540;5.854;2023-04-03T09:03:40;51.35;46.76;60.54;;
75037;Laerm;64247;51.540;5.854;2023-04-03T09:05:57;50.15;46.15;58.86;;
75037;Laerm;64247;51.540;5.854;2023-04-03T09:10:43;48.94;45.82;59.75;;
75037;Laerm;64247;51.540;5.854;2023-04-03T09:12:57;50.16;46.45;58.91;;
75037;Laerm;64247;51.540;5.854;2023-04-03T09:15:20;50.15;46.43;61.36;;
75037;Laerm;64247;51.540;5.854;2023-04-03T09:17:41;52.10;46.70;64.11;;
75037;Laerm;64247;51.540;5.854;2023-04-03T09:22:52;51.56;45.88;65.03;;
75037;Laerm;64247;51.540;5.854;2023-04-03T09:25:33;54.75;45.15;69.62;;
75037;Laerm;64247;51.540;5.854;2023-04-03T09:27:36;52.20;46.32;66.08;;
75037;Laerm;64247;51.540;5.854;2023-04-03T09:29:43;52.39;46.79;69.19;;
75037;Laerm;64247;51.540;5.854;2023-04-03T09:31:50;54.44;46.60;65.89;;
75037;Laerm;64247;51.540;5.854;2023-04-03T09:34:01;58.57;52.30;77.55;;
75037;Laerm;64247;51.540;5.854;2023-04-03T09:36:03;57.88;52.18;70.20;;
75037;Laerm;64247;51.540;5.854;2023-04-03T09:38:30;55.51;51.99;65.30;;
75037;Laerm;64247;51.540;5.854;2023-04-03T09:43:38;55.88;51.25;71.76;;
75037;Laerm;64247;51.540;5.854;2023-04-03T09:45:39;55.72;51.77;65.17;;
75037;Laerm;64247;51.540;5.854;2023-04-03T09:47:41;55.40;51.90;66.61;;
75037;Laerm;64247;51.540;5.854;2023-04-03T09:49:42;56.06;52.20;67.88;;
75037;Laerm;64247;51.540;5.854;2023-04-03T09:51:43;55.97;52.61;63.19;;
75037;Laerm;64247;51.540;5.854;2023-04-03T09:53:45;54.41;51.71;61.24;;
75037;Laerm;64247;51.540;5.854;2023-04-03T09:55:46;55.37;51.81;66.09;;
75037;Laerm;64247;51.540;5.854;2023-04-03T09:57:48;56.25;52.36;65.69;;
75037;Laerm;64247;51.540;5.854;2023-04-03T10:00:03;56.61;52.41;65.95;;
75037;Laerm;64247;51.540;5.854;2023-04-03T10:02:54;55.39;51.82;65.17;;
75037;Laerm;64247;51.540;5.854;2023-04-03T10:04:56;54.97;51.82;62.16;;
75037;Laerm;64247;51.540;5.854;2023-04-03T10:06:57;55.68;51.54;63.76;;
75037;Laerm;64247;51.540;5.854;2023-04-03T10:09:18;55.78;52.18;66.02;;
75037;Laerm;64247;51.540;5.854;2023-04-03T10:11:20;56.13;51.98;69.03;;
75037;Laerm;64247;51.540;5.854;2023-04-03T10:13:22;54.66;47.52;61.70;;
75037;Laerm;64247;51.540;5.854;2023-04-03T10:15:27;53.70;47.74;64.61;;
75037;Laerm;64247;51.540;5.854;2023-04-03T10:17:55;52.71;47.07;65.41;;
75037;Laerm;64247;51.540;5.854;2023-04-03T10:20:48;59.06;48.31;76.46;;
75037;Laerm;64247;51.540;5.854;2023-04-03T10:23:26;59.31;48.48;72.64;;
75037;Laerm;64247;51.540;5.854;2023-04-03T10:29:09;54.83;47.04;70.22;;
75037;Laerm;64247;51.540;5.854;2023-04-03T10:31:34;61.28;49.31;75.86;;
75037;Laerm;64247;51.540;5.854;2023-04-03T10:34:32;54.26;47.63;69.38;;
75037;Laerm;64247;51.540;5.854;2023-04-03T10:46:02;56.98;48.20;71.44;;
75037;Laerm;64247;51.540;5.854;2023-04-03T10:48:37;58.20;49.12;70.83;;
75037;Laerm;64247;51.540;5.854;2023-04-03T10:57:06;59.48;46.27;75.56;;
75037;Laerm;64247;51.540;5.854;2023-04-03T11:00:07;54.36;47.34;65.62;;
75037;Laerm;64247;51.540;5.854;2023-04-03T11:02:29;52.58;46.41;71.88;;
75037;Laerm;64247;51.540;5.854;2023-04-03T11:04:36;50.11;46.35;63.40;;
75037;Laerm;64247;51.540;5.854;2023-04-03T11:06:53;59.52;48.20;77.96;;
75037;Laerm;64247;51.540;5.854;2023-04-03T11:09:18;56.36;51.11;68.43;;
75037;Laerm;64247;51.540;5.854;2023-04-03T11:11:27;57.91;52.41;77.62;;
75037;Laerm;64247;51.540;5.854;2023-04-03T11:13:40;56.33;52.62;70.72;;
75037;Laerm;64247;51.540;5.854;2023-04-03T11:15:44;58.99;47.91;73.07;;
75037;Laerm;64247;51.540;5.854;2023-04-03T11:18:06;51.55;46.87;65.23;;
75037;Laerm;64247;51.540;5.854;2023-04-03T11:20:26;54.03;48.18;69.37;;
75037;Laerm;64247;51.540;5.854;2023-04-03T11:22:38;56.68;49.35;69.20;;
75037;Laerm;64247;51.540;5.854;2023-04-03T11:24:46;56.79;48.07;69.17;;
75037;Laerm;64247;51.540;5.854;2023-04-03T11:26:55;58.67;48.82;76.98;;
75037;Laerm;64247;51.540;5.854;2023-04-03T11:29:02;53.46;46.48;63.66;;
75037;Laerm;64247;51.540;5.854;2023-04-03T11:32:12;55.74;46.68;68.52;;
75037;Laerm;64247;51.540;5.854;2023-04-03T11:37:01;52.88;46.95;64.84;;
75037;Laerm;64247;51.540;5.854;2023-04-03T11:39:32;54.49;47.57;72.63;;
75037;Laerm;64247;51.540;5.854;2023-04-03T11:41:34;56.96;48.80;72.72;;
75037;Laerm;64247;51.540;5.854;2023-04-03T11:44:04;55.39;48.22;70.46;;
75037;Laerm;64247;51.540;5.854;2023-04-03T11:46:05;57.67;47.58;75.97;;
75037;Laerm;64247;51.540;5.854;2023-04-03T11:48:49;55.46;48.28;69.14;;
75037;Laerm;64247;51.540;5.854;2023-04-03T11:50:56;54.83;46.42;70.27;;
75037;Laerm;64247;51.540;5.854;2023-04-03T11:53:10;54.10;47.54;68.71;;
75037;Laerm;64247;51.540;5.854;2023-04-03T11:58:33;59.95;50.34;71.81;;
75037;Laerm;64247;51.540;5.854;2023-04-03T12:01:03;59.90;49.11;74.21;;
75037;Laerm;64247;51.540;5.854;2023-04-03T12:09:53;54.17;46.72;68.74;;
75037;Laerm;64247;51.540;5.854;2023-04-03T12:11:59;55.29;48.61;69.56;;
75037;Laerm;64247;51.540;5.854;2023-04-03T12:14:24;56.50;48.80;70.83;;
75037;Laerm;64247;51.540;5.854;2023-04-03T12:16:51;56.66;48.30;71.09;;
75037;Laerm;64247;51.540;5.854;2023-04-03T12:22:21;52.34;46.94;67.37;;
75037;Laerm;64247;51.540;5.854;2023-04-03T12:24:45;59.64;47.92;71.73;;
75037;Laerm;64247;51.540;5.854;2023-04-03T12:27:34;60.39;48.44;73.81;;
75037;Laerm;64247;51.540;5.854;2023-04-03T12:46:28;52.13;48.43;66.17;;
75037;Laerm;64247;51.540;5.854;2023-04-03T12:48:59;55.96;47.69;68.72;;
75037;Laerm;64247;51.540;5.854;2023-04-03T12:51:02;60.68;48.16;72.52;;
75037;Laerm;64247;51.540;5.854;2023-04-03T12:54:30;53.08;48.11;64.53;;
75037;Laerm;64247;51.540;5.854;2023-04-03T12:56:33;55.48;47.82;67.99;;
75037;Laerm;64247;51.540;5.854;2023-04-03T12:58:35;54.75;46.91;67.44;;